Time;durP1;ratioP1;P1;durP2;ratioP2;P2;SDS_P1;SDS_P2;PMS_P1;PMS_P2;Temp;Humidity;BMP_temperature;BMP_pressure;BME280_temperature;BME280_humidity;BME280_pressure;Samples;Min_cycle;Max_cycle;Signal;HPM_P1;HPM_P2
2021/07/05 00:01:55;;;;;;;2.40;2.30;;;19.00;75.60;;;;;;5065997;28;20190;-71
2021/07/05 00:04:20;;;;;;;3.30;3.10;;;19.00;76.10;;;;;;5067816;28;20182;-71
2021/07/05 00:06:46;;;;;;;2.90;2.70;;;18.90;76.50;;;;;;5067429;28;20183;-72
2021/07/05 00:09:12;;;;;;;2.75;2.55;;;18.80;76.40;;;;;;5065673;28;20258;-72
2021/07/05 00:11:37;;;;;;;2.70;2.60;;;18.80;76.30;;;;;;5067948;28;20665;-72
2021/07/05 00:14:03;;;;;;;4.85;2.75;;;18.80;76.60;;;;;;5066500;28;20195;-72
2021/07/05 00:16:29;;;;;;;2.92;2.75;;;18.70;76.50;;;;;;5067274;28;20593;-71
2021/07/05 00:18:55;;;;;;;2.50;2.40;;;18.70;76.40;;;;;;5070186;28;20182;-72
2021/07/05 00:21:21;;;;;;;2.50;2.40;;;18.70;76.40;;;;;;5067725;28;20206;-71
2021/07/05 00:23:46;;;;;;;2.58;2.47;;;18.60;76.60;;;;;;5067052;28;20179;-71
2021/07/05 00:26:12;;;;;;;2.47;2.38;;;18.60;76.60;;;;;;5066018;28;20741;-71
2021/07/05 00:28:38;;;;;;;2.20;2.20;;;18.50;76.70;;;;;;5067053;28;20270;-71
2021/07/05 00:31:04;;;;;;;2.15;2.05;;;18.50;76.60;;;;;;5073152;28;20239;-71
2021/07/05 00:33:32;;;;;;;2.63;2.50;;;18.50;76.70;;;;;;5066747;28;20183;-72
2021/07/05 00:35:58;;;;;;;2.40;2.30;;;18.50;76.70;;;;;;5063009;28;20270;-71
2021/07/05 00:38:24;;;;;;;2.05;1.95;;;18.50;76.60;;;;;;5064775;28;20187;-71
2021/07/05 00:40:49;;;;;;;1.65;1.65;;;18.40;77.00;;;;;;5067178;28;20187;-71
2021/07/05 00:43:15;;;;;;;2.08;2.08;;;18.40;77.20;;;;;;5066353;28;20213;-72
2021/07/05 00:45:41;;;;;;;2.33;2.22;;;18.40;77.10;;;;;;5067732;28;20180;-72
2021/07/05 00:48:06;;;;;;;1.98;1.88;;;18.40;77.00;;;;;;5066071;28;21006;-71
2021/07/05 00:50:32;;;;;;;2.45;2.35;;;18.30;77.30;;;;;;5063048;28;20261;-71
2021/07/05 00:53:01;;;;;;;2.80;2.70;;;18.30;77.40;;;;;;5065982;28;20245;-72
2021/07/05 00:55:28;;;;;;;2.65;2.38;;;18.30;77.70;;;;;;5066033;28;20258;-71
2021/07/05 00:57:54;;;;;;;2.08;1.98;;;18.30;77.60;;;;;;5063203;28;20179;-71
2021/07/05 01:00:23;;;;;;;1.98;1.98;;;18.20;77.80;;;;;;5062875;28;20185;-71
2021/07/05 01:02:50;;;;;;;2.28;2.25;;;18.20;77.60;;;;;;5070418;28;20265;-71
2021/07/05 01:05:17;;;;;;;2.10;2.10;;;18.20;77.60;;;;;;5067044;28;20228;-71
2021/07/05 01:07:45;;;;;;;2.67;2.30;;;18.10;78.00;;;;;;5066782;28;20182;-72
2021/07/05 01:10:13;;;;;;;1.90;1.90;;;18.10;77.50;;;;;;5082159;28;20249;-71
2021/07/05 01:12:39;;;;;;;2.25;2.15;;;18.10;77.80;;;;;;5065852;28;20303;-71
2021/07/05 01:15:08;;;;;;;2.58;2.47;;;18.10;78.10;;;;;;5067275;28;20198;-71
2021/07/05 01:17:34;;;;;;;1.98;1.88;;;18.10;78.10;;;;;;5067285;28;20706;-71
2021/07/05 01:19:59;;;;;;;2.22;2.13;;;18.10;78.20;;;;;;5066735;28;20179;-71
2021/07/05 01:22:25;;;;;;;1.88;1.77;;;18.10;78.50;;;;;;5065082;28;20699;-71
2021/07/05 01:24:51;;;;;;;1.85;1.85;;;18.10;78.60;;;;;;5064491;28;20179;-71
2021/07/05 01:27:17;;;;;;;2.60;2.50;;;18.00;78.50;;;;;;5065878;28;20183;-71
2021/07/05 01:29:44;;;;;;;2.28;2.28;;;18.00;78.50;;;;;;5065644;28;20187;-71
2021/07/05 01:32:11;;;;;;;1.85;1.75;;;18.00;78.40;;;;;;5062692;28;20207;-71
2021/07/05 01:34:37;;;;;;;1.85;1.85;;;18.10;78.30;;;;;;5064961;28;20682;-72
2021/07/05 01:37:05;;;;;;;2.05;1.95;;;18.00;78.40;;;;;;5065495;28;20193;-72
2021/07/05 01:39:31;;;;;;;2.22;2.13;;;18.00;78.40;;;;;;5065435;28;20725;-72
2021/07/05 01:41:56;;;;;;;1.90;1.80;;;18.00;78.60;;;;;;5065611;28;20265;-72
2021/07/05 01:44:22;;;;;;;2.40;2.30;;;18.00;78.60;;;;;;5066247;28;20181;-72
2021/07/05 01:46:48;;;;;;;2.40;2.25;;;18.00;78.80;;;;;;5065651;28;20186;-72
2021/07/05 01:49:14;;;;;;;2.28;2.17;;;18.00;78.60;;;;;;5065875;28;20941;-72
2021/07/05 01:51:40;;;;;;;2.15;2.15;;;18.00;79.00;;;;;;5064504;28;20688;-72
2021/07/05 01:54:06;;;;;;;2.13;2.13;;;17.90;79.20;;;;;;5068393;28;20206;-72
2021/07/05 01:56:32;;;;;;;2.60;2.40;;;17.90;79.20;;;;;;5064765;28;20186;-72
2021/07/05 01:58:58;;;;;;;2.65;2.55;;;17.90;79.50;;;;;;5066394;28;20197;-72
2021/07/05 02:01:24;;;;;;;2.97;2.58;;;17.90;79.80;;;;;;5063800;28;20191;-72
2021/07/05 02:03:50;;;;;;;2.33;2.22;;;17.90;79.70;;;;;;5062136;28;20687;-72
2021/07/05 02:06:16;;;;;;;2.25;2.03;;;17.80;79.60;;;;;;5065170;28;20627;-72
2021/07/05 02:08:42;;;;;;;2.75;2.53;;;17.80;79.50;;;;;;5065794;28;20175;-72
2021/07/05 02:11:08;;;;;;;2.58;2.47;;;17.80;79.50;;;;;;5064144;28;20186;-72
2021/07/05 02:13:37;;;;;;;3.13;2.70;;;17.70;79.50;;;;;;5064042;28;20184;-72
2021/07/05 02:16:03;;;;;;;2.50;2.42;;;17.70;79.40;;;;;;5065385;28;20266;-71
2021/07/05 02:18:30;;;;;;;2.80;2.70;;;17.60;79.80;;;;;;5064182;28;20194;-72
2021/07/05 02:20:58;;;;;;;3.25;2.45;;;17.60;80.20;;;;;;5065222;28;20186;-72
2021/07/05 02:23:24;;;;;;;2.90;2.80;;;17.50;80.00;;;;;;5064987;28;20187;-72
2021/07/05 02:25:50;;;;;;;2.85;2.65;;;17.50;80.40;;;;;;5065087;28;20590;-72
2021/07/05 02:28:20;;;;;;;3.00;2.90;;;17.40;80.30;;;;;;5066760;28;20747;-71
2021/07/05 02:30:49;;;;;;;2.88;2.78;;;17.40;80.20;;;;;;5065139;28;20270;-71
2021/07/05 02:33:17;;;;;;;2.80;2.65;;;17.40;81.00;;;;;;5067263;28;20225;-72
2021/07/05 02:35:43;;;;;;;2.75;2.65;;;17.30;80.40;;;;;;5069507;28;20198;-72
2021/07/05 02:38:11;;;;;;;3.10;3.00;;;17.30;80.70;;;;;;5068293;28;20181;-71
2021/07/05 02:40:44;;;;;;;2.78;2.67;;;17.30;80.30;;;;;;5068584;28;20183;-71
2021/07/05 02:43:10;;;;;;;2.83;2.47;;;17.30;80.20;;;;;;5070033;28;20193;-72
2021/07/05 02:45:37;;;;;;;4.40;2.58;;;17.30;80.80;;;;;;5068376;28;20189;-71
2021/07/05 02:48:06;;;;;;;3.30;2.88;;;17.30;81.30;;;;;;5068065;28;20250;-71
2021/07/05 02:50:33;;;;;;;2.28;2.17;;;17.30;81.50;;;;;;5069380;28;20190;-71
2021/07/05 02:53:00;;;;;;;2.75;2.65;;;17.30;81.90;;;;;;5068932;28;20245;-71
2021/07/05 02:55:26;;;;;;;3.63;3.03;;;17.20;81.70;;;;;;5067159;28;20194;-71
2021/07/05 02:57:53;;;;;;;2.28;2.25;;;17.20;81.70;;;;;;5069501;28;20175;-72
2021/07/05 03:00:25;;;;;;;2.45;2.35;;;17.20;81.90;;;;;;5067003;28;20210;-71
2021/07/05 03:02:52;;;;;;;2.90;2.80;;;17.20;81.90;;;;;;5068205;28;20561;-71
2021/07/05 03:05:20;;;;;;;2.75;2.65;;;17.20;82.30;;;;;;5066152;28;20614;-71
2021/07/05 03:07:46;;;;;;;3.00;2.75;;;17.20;82.30;;;;;;5065510;28;20680;-72
2021/07/05 03:10:18;;;;;;;2.65;2.40;;;17.10;82.20;;;;;;5067770;28;20186;-71
2021/07/05 03:12:44;;;;;;;2.60;2.50;;;17.10;82.00;;;;;;5069434;28;20696;-72
2021/07/05 03:15:12;;;;;;;4.20;2.72;;;17.10;82.50;;;;;;5068793;28;20191;-71
2021/07/05 03:17:39;;;;;;;2.85;2.65;;;17.20;82.50;;;;;;5077846;28;20202;-72
2021/07/05 03:20:10;;;;;;;3.88;2.25;;;17.20;82.50;;;;;;5071403;28;20175;-72
2021/07/05 03:22:37;;;;;;;2.20;2.13;;;17.20;82.10;;;;;;5068715;28;20202;-72
2021/07/05 03:25:06;;;;;;;2.67;2.58;;;17.30;82.30;;;;;;5068525;28;20187;-71
2021/07/05 03:27:32;;;;;;;2.83;2.63;;;17.40;82.10;;;;;;5077796;28;20182;-73
2021/07/05 03:29:57;;;;;;;2.42;2.33;;;17.40;82.10;;;;;;5066435;28;20184;-72
2021/07/05 03:32:23;;;;;;;2.13;2.03;;;17.50;82.30;;;;;;5068001;28;20280;-72
2021/07/05 03:34:49;;;;;;;2.25;2.15;;;17.50;82.00;;;;;;5063457;28;20568;-72
2021/07/05 03:37:15;;;;;;;3.10;2.95;;;17.60;82.00;;;;;;5066044;28;20209;-72
2021/07/05 03:39:41;;;;;;;3.03;2.83;;;17.60;82.10;;;;;;5066466;28;20656;-73
2021/07/05 03:42:06;;;;;;;3.08;2.88;;;17.70;81.90;;;;;;5066923;28;20196;-72
2021/07/05 03:44:32;;;;;;;2.78;2.58;;;17.70;82.10;;;;;;5066065;28;20183;-72
2021/07/05 03:46:58;;;;;;;2.58;2.47;;;17.70;82.20;;;;;;5069400;28;20183;-72
2021/07/05 03:49:24;;;;;;;2.95;2.85;;;17.70;82.30;;;;;;5066595;28;20210;-72
2021/07/05 03:51:50;;;;;;;2.65;2.53;;;17.70;82.50;;;;;;5067684;28;20226;-72
2021/07/05 03:54:15;;;;;;;2.95;2.63;;;17.70;82.50;;;;;;5066352;28;20184;-72
2021/07/05 03:56:41;;;;;;;2.28;2.13;;;17.70;82.50;;;;;;5074690;28;20583;-72
2021/07/05 03:59:07;;;;;;;2.60;2.50;;;17.70;82.20;;;;;;5066888;28;20259;-72
2021/07/05 04:01:34;;;;;;;2.95;2.75;;;17.80;82.30;;;;;;5061919;28;20737;-72
2021/07/05 04:04:00;;;;;;;2.60;2.40;;;17.80;82.00;;;;;;5066906;28;20175;-72
2021/07/05 04:06:26;;;;;;;2.72;2.63;;;17.90;81.20;;;;;;5068188;28;20182;-72
2021/07/05 04:08:54;;;;;;;2.90;2.80;;;18.10;81.00;;;;;;5082444;28;20191;-72
2021/07/05 04:11:20;;;;;;;3.10;2.95;;;18.20;80.80;;;;;;5061664;28;20679;-73
2021/07/05 04:13:46;;;;;;;3.00;2.90;;;18.30;80.60;;;;;;5067166;28;20179;-72
2021/07/05 04:16:11;;;;;;;2.78;2.65;;;18.40;80.50;;;;;;5066601;28;20198;-72
2021/07/05 04:18:37;;;;;;;2.95;2.78;;;18.50;80.20;;;;;;5067056;28;20205;-72
2021/07/05 04:21:03;;;;;;;3.40;3.13;;;18.60;80.10;;;;;;5067057;28;20191;-72
2021/07/05 04:23:28;;;;;;;2.88;2.65;;;18.80;80.10;;;;;;5068270;28;20186;-72
2021/07/05 04:25:55;;;;;;;2.95;2.85;;;18.80;79.50;;;;;;5067473;28;20231;-72
2021/07/05 04:28:21;;;;;;;3.97;3.58;;;18.90;79.50;;;;;;5079862;28;20187;-73
2021/07/05 04:30:48;;;;;;;3.17;2.97;;;19.00;79.40;;;;;;5063809;28;20194;-72
2021/07/05 04:33:13;;;;;;;2.80;2.70;;;19.10;78.60;;;;;;5066675;28;20715;-72
2021/07/05 04:35:39;;;;;;;3.20;3.10;;;19.20;78.70;;;;;;5063465;28;20297;-73
2021/07/05 04:38:05;;;;;;;3.38;3.25;;;19.20;78.60;;;;;;5066944;28;20183;-72
2021/07/05 04:40:34;;;;;;;3.45;3.35;;;19.30;78.10;;;;;;5064800;28;20183;-71
2021/07/05 04:43:00;;;;;;;3.53;3.33;;;19.40;77.50;;;;;;5066535;28;20189;-71
2021/07/05 04:45:28;;;;;;;3.45;3.35;;;19.50;77.30;;;;;;5065636;28;20228;-71
2021/07/05 04:47:55;;;;;;;3.45;3.00;;;19.60;77.10;;;;;;5082030;28;20752;-72
2021/07/05 04:50:21;;;;;;;3.28;3.08;;;19.70;77.10;;;;;;5064995;28;20183;-72
2021/07/05 04:52:47;;;;;;;6.45;3.67;;;19.70;77.10;;;;;;5066126;28;20268;-72
2021/07/05 04:55:14;;;;;;;4.17;3.97;;;19.80;77.00;;;;;;5064609;28;20430;-72
2021/07/05 04:57:42;;;;;;;3.60;3.50;;;19.90;75.10;;;;;;5067173;28;20265;-72
2021/07/05 05:00:14;;;;;;;5.93;3.40;;;20.00;76.40;;;;;;5060145;28;20241;-72
2021/07/05 05:02:39;;;;;;;4.00;3.30;;;20.00;76.20;;;;;;5064127;28;20182;-72
2021/07/05 05:05:06;;;;;;;3.83;3.50;;;20.10;76.30;;;;;;5056695;28;20178;-72
2021/07/05 05:07:33;;;;;;;3.55;3.30;;;20.00;76.30;;;;;;5063437;28;20232;-72
2021/07/05 05:10:01;;;;;;;5.72;3.60;;;20.00;76.90;;;;;;5060099;28;20629;-72
2021/07/05 05:12:30;;;;;;;4.75;4.30;;;20.00;76.40;;;;;;5064671;28;20210;-72
2021/07/05 05:14:57;;;;;;;5.70;4.35;;;19.90;76.20;;;;;;5066646;28;20199;-71
2021/07/05 05:17:23;;;;;;;8.40;4.55;;;19.80;76.40;;;;;;5067153;28;20186;-72
2021/07/05 05:19:49;;;;;;;5.40;3.95;;;19.80;76.70;;;;;;5058824;28;20219;-72
2021/07/05 05:22:15;;;;;;;3.75;3.47;;;19.80;77.00;;;;;;5063905;28;20182;-72
2021/07/05 05:24:42;;;;;;;5.00;3.75;;;19.80;76.90;;;;;;5065745;28;20190;-72
2021/07/05 05:27:07;;;;;;;3.95;3.65;;;19.80;76.60;;;;;;5060799;28;20277;-73
2021/07/05 05:29:33;;;;;;;3.50;3.35;;;19.80;76.40;;;;;;5057733;28;20183;-73
2021/07/05 05:31:59;;;;;;;4.50;4.20;;;19.80;76.50;;;;;;5061933;28;20728;-72
2021/07/05 05:34:25;;;;;;;3.75;3.40;;;19.90;76.60;;;;;;5064804;28;20178;-72
2021/07/05 05:36:50;;;;;;;4.28;4.07;;;20.00;76.70;;;;;;5065452;28;20175;-72
2021/07/05 05:39:16;;;;;;;4.40;4.00;;;20.00;76.80;;;;;;5058909;28;20207;-71
2021/07/05 05:41:42;;;;;;;3.53;3.33;;;20.10;76.60;;;;;;5064886;28;20187;-73
2021/07/05 05:44:08;;;;;;;4.28;4.07;;;20.20;76.00;;;;;;5055018;28;20172;-72
2021/07/05 05:46:34;;;;;;;4.22;3.92;;;20.30;75.80;;;;;;5058578;28;20190;-72
2021/07/05 05:49:00;;;;;;;4.53;3.30;;;20.40;76.00;;;;;;5067152;28;20179;-72
2021/07/05 05:51:33;;;;;;;3.60;3.40;;;20.50;75.70;;;;;;5066919;28;20211;-72
2021/07/05 05:54:09;;;;;;;4.30;4.03;;;20.60;75.30;;;;;;5065452;28;20186;-72
2021/07/05 05:56:38;;;;;;;3.92;3.65;;;20.60;75.20;;;;;;5067128;28;20178;-71
2021/07/05 05:59:07;;;;;;;3.90;3.60;;;20.60;75.10;;;;;;5065222;28;20179;-72
2021/07/05 06:01:34;;;;;;;4.43;4.00;;;20.60;75.20;;;;;;5070257;28;20541;-71
2021/07/05 06:04:00;;;;;;;4.22;4.00;;;20.70;74.90;;;;;;5061564;28;20672;-71
2021/07/05 06:06:26;;;;;;;4.38;4.13;;;20.70;75.00;;;;;;5067043;28;20174;-73
2021/07/05 06:08:53;;;;;;;4.53;4.22;;;20.70;74.90;;;;;;5071113;28;20950;-71
2021/07/05 06:11:19;;;;;;;4.60;4.20;;;20.70;75.20;;;;;;5070380;28;20179;-71
2021/07/05 06:13:45;;;;;;;4.55;4.25;;;20.70;74.70;;;;;;5070191;28;20619;-72
2021/07/05 06:16:11;;;;;;;4.15;3.85;;;20.70;74.50;;;;;;5070478;28;20600;-72
2021/07/05 06:18:36;;;;;;;3.72;3.42;;;20.70;74.70;;;;;;5065944;28;20211;-72
2021/07/05 06:21:03;;;;;;;4.93;4.63;;;20.70;75.00;;;;;;5070649;28;20604;-72
2021/07/05 06:23:28;;;;;;;3.90;3.80;;;20.70;74.90;;;;;;5070377;28;20705;-72
2021/07/05 06:25:56;;;;;;;3.90;3.60;;;20.70;74.70;;;;;;5070146;28;20261;-73
2021/07/05 06:28:23;;;;;;;3.90;3.80;;;20.80;74.30;;;;;;5070137;28;20221;-73
2021/07/05 06:30:50;;;;;;;4.18;3.78;;;20.80;74.40;;;;;;5070318;28;20183;-73
2021/07/05 06:33:17;;;;;;;3.75;3.55;;;20.80;74.60;;;;;;5070351;28;20255;-73
2021/07/05 06:35:44;;;;;;;3.70;3.50;;;20.80;74.60;;;;;;5069400;28;20758;-73
2021/07/05 06:38:11;;;;;;;4.07;3.88;;;20.90;74.60;;;;;;5069877;28;20188;-72
2021/07/05 06:40:37;;;;;;;6.38;4.00;;;20.90;74.10;;;;;;5085358;28;20260;-72
2021/07/05 06:43:03;;;;;;;4.65;3.60;;;20.90;73.00;;;;;;5070273;28;20251;-72
2021/07/05 06:45:29;;;;;;;3.58;3.47;;;20.90;73.60;;;;;;5070222;28;20217;-72
2021/07/05 06:47:55;;;;;;;3.28;3.17;;;21.00;73.30;;;;;;5069876;28;20182;-72
2021/07/05 06:50:21;;;;;;;3.10;3.00;;;21.20;73.00;;;;;;5069718;28;20659;-72
2021/07/05 06:52:47;;;;;;;3.05;3.03;;;21.30;73.40;;;;;;5069866;28;20416;-72
2021/07/05 06:55:13;;;;;;;3.67;3.40;;;21.40;73.70;;;;;;5070145;28;20187;-72
2021/07/05 06:57:40;;;;;;;6.47;3.33;;;21.50;73.60;;;;;;5085643;28;20923;-72
2021/07/05 07:00:18;;;;;;;4.22;4.07;;;21.70;73.80;;;;;;5085236;28;20183;-72
2021/07/05 07:02:45;;;;;;;3.90;3.60;;;21.80;73.80;;;;;;5069586;28;21015;-72
2021/07/05 07:05:16;;;;;;;3.47;3.20;;;22.00;73.70;;;;;;5069647;28;20209;-72
2021/07/05 07:07:45;;;;;;;4.38;3.97;;;22.10;73.60;;;;;;5069962;28;20182;-72
2021/07/05 07:10:14;;;;;;;3.50;3.35;;;22.20;73.50;;;;;;5069553;28;20229;-72
2021/07/05 07:12:42;;;;;;;12.43;4.68;;;22.20;73.40;;;;;;5069326;28;20222;-73
2021/07/05 07:15:10;;;;;;;4.28;3.88;;;22.30;73.20;;;;;;5085164;28;20210;-72
2021/07/05 07:17:39;;;;;;;4.45;4.15;;;22.30;73.40;;;;;;5065130;28;20660;-72
2021/07/05 07:20:11;;;;;;;9.50;5.65;;;22.40;73.80;;;;;;5079223;28;20183;-72
2021/07/05 07:22:38;;;;;;;5.10;4.53;;;22.50;73.00;;;;;;5084701;28;20190;-72
2021/07/05 07:25:06;;;;;;;4.95;3.80;;;22.60;72.40;;;;;;5064145;28;20636;-71
2021/07/05 07:27:32;;;;;;;4.80;4.40;;;22.70;72.60;;;;;;5063225;28;20175;-71
2021/07/05 07:29:58;;;;;;;9.98;4.55;;;22.80;72.70;;;;;;5064764;28;20560;-71
2021/07/05 07:32:23;;;;;;;5.20;4.85;;;22.90;71.80;;;;;;5068055;28;20683;-71
2021/07/05 07:34:49;;;;;;;4.70;4.30;;;23.00;71.60;;;;;;5065648;28;20644;-72
2021/07/05 07:37:15;;;;;;;5.00;4.50;;;23.10;71.40;;;;;;5064950;28;20176;-72
2021/07/05 07:39:44;;;;;;;6.63;4.78;;;23.20;71.60;;;;;;5068677;28;20179;-73
2021/07/05 07:42:10;;;;;;;5.53;4.70;;;23.30;71.70;;;;;;5064776;28;20183;-72
2021/07/05 07:44:36;;;;;;;4.30;4.10;;;23.50;71.60;;;;;;5063296;28;20229;-73
2021/07/05 07:47:04;;;;;;;4.20;4.00;;;23.60;71.60;;;;;;5066432;28;20734;-71
2021/07/05 07:49:30;;;;;;;4.28;4.03;;;23.80;71.60;;;;;;5064779;28;20207;-71
2021/07/05 07:52:05;;;;;;;5.10;4.60;;;24.00;71.00;;;;;;5065737;28;20673;-72
2021/07/05 07:54:32;;;;;;;7.57;4.55;;;24.30;70.30;;;;;;5066733;28;20360;-71
2021/07/05 07:56:58;;;;;;;4.80;4.40;;;24.50;70.30;;;;;;5066845;28;20207;-71
2021/07/05 07:59:24;;;;;;;5.30;4.93;;;24.70;70.00;;;;;;5066608;28;20207;-71
2021/07/05 08:01:50;;;;;;;7.38;5.25;;;24.90;69.00;;;;;;5068115;28;20556;-71
2021/07/05 08:04:16;;;;;;;5.30;4.63;;;25.10;68.40;;;;;;5067461;28;20194;-71
2021/07/05 08:06:42;;;;;;;5.60;4.65;;;25.30;68.40;;;;;;5065673;28;20236;-71
2021/07/05 08:09:08;;;;;;;6.35;5.75;;;25.50;68.40;;;;;;5068506;28;20175;-72
2021/07/05 08:11:35;;;;;;;9.32;6.60;;;25.70;67.20;;;;;;5068859;28;20210;-72
2021/07/05 08:14:02;;;;;;;5.95;5.45;;;25.80;66.10;;;;;;5068194;28;20190;-72
2021/07/05 08:16:29;;;;;;;8.32;5.40;;;25.80;66.20;;;;;;5067959;28;20262;-72
2021/07/05 08:18:54;;;;;;;10.77;5.57;;;26.00;66.90;;;;;;5069870;28;20286;-71
2021/07/05 08:21:20;;;;;;;5.45;5.07;;;26.10;67.10;;;;;;5066304;28;20958;-71
2021/07/05 08:23:46;;;;;;;10.43;5.78;;;26.30;66.60;;;;;;5067829;28;20183;-71
2021/07/05 08:26:12;;;;;;;5.53;5.00;;;26.60;65.90;;;;;;5067808;28;20602;-72
2021/07/05 08:28:38;;;;;;;6.00;5.38;;;26.70;66.30;;;;;;5059438;28;20266;-72
2021/07/05 08:31:05;;;;;;;5.95;5.55;;;26.90;65.60;;;;;;5065065;28;20256;-72
2021/07/05 08:33:31;;;;;;;5.90;5.18;;;27.20;65.60;;;;;;5079433;28;20290;-72
2021/07/05 08:36:00;;;;;;;4.88;4.53;;;27.40;65.30;;;;;;5062996;28;20289;-72
2021/07/05 08:38:27;;;;;;;8.95;5.30;;;27.50;64.70;;;;;;5062024;28;20262;-72
2021/07/05 08:40:55;;;;;;;5.45;5.05;;;27.70;64.20;;;;;;5061854;28;20611;-72
2021/07/05 08:43:26;;;;;;;5.13;4.72;;;27.90;63.30;;;;;;5064674;28;20187;-71
2021/07/05 08:46:04;;;;;;;5.05;4.30;;;28.10;62.80;;;;;;5069270;28;20175;-72
2021/07/05 08:48:36;;;;;;;4.95;4.47;;;28.20;63.50;;;;;;5062211;28;20194;-72
2021/07/05 08:51:04;;;;;;;5.90;5.45;;;28.40;62.80;;;;;;5066489;28;20190;-72
2021/07/05 08:53:31;;;;;;;4.85;4.45;;;28.40;62.00;;;;;;5073104;28;20214;-71
2021/07/05 08:55:56;;;;;;;5.85;4.97;;;28.20;62.50;;;;;;5069439;28;20577;-72
2021/07/05 08:58:22;;;;;;;4.68;4.57;;;28.20;62.40;;;;;;5065705;28;20183;-72
2021/07/05 09:00:48;;;;;;;5.07;4.78;;;28.20;63.00;;;;;;5066686;28;20246;-72
2021/07/05 09:03:14;;;;;;;5.20;4.85;;;28.20;62.10;;;;;;5062893;28;20202;-72
2021/07/05 09:05:40;;;;;;;4.32;4.03;;;28.20;62.60;;;;;;5060679;28;20322;-73
2021/07/05 09:08:10;;;;;;;8.13;4.25;;;28.10;62.40;;;;;;5050336;28;20210;-73
2021/07/05 09:10:49;;;;;;;4.65;3.70;;;28.00;63.00;;;;;;5056087;28;20492;-72
2021/07/05 09:13:26;;;;;;;5.53;3.80;;;28.10;63.80;;;;;;5047288;28;20222;-73
2021/07/05 09:15:59;;;;;;;4.00;3.70;;;28.00;62.50;;;;;;5061060;28;20204;-73
2021/07/05 09:18:43;;;;;;;3.60;3.40;;;28.00;61.40;;;;;;5064601;28;20251;-72
2021/07/05 09:21:19;;;;;;;3.13;3.03;;;28.00;62.00;;;;;;5059056;28;20175;-75
2021/07/05 09:23:58;;;;;;;3.30;2.95;;;28.00;62.50;;;;;;5063786;28;20190;-74
2021/07/05 09:26:42;;;;;;;2.90;2.70;;;28.10;62.10;;;;;;5062361;28;20742;-72
2021/07/05 09:29:22;;;;;;;3.35;3.13;;;28.20;61.90;;;;;;5068072;28;20175;-72
2021/07/05 09:31:57;;;;;;;3.03;2.92;;;28.20;61.70;;;;;;5070555;28;20226;-72
2021/07/05 09:34:27;;;;;;;6.68;2.70;;;28.20;62.10;;;;;;5074251;28;20178;-72
2021/07/05 09:36:56;;;;;;;2.80;2.58;;;28.30;60.60;;;;;;5067710;28;20214;-73
2021/07/05 09:39:25;;;;;;;2.08;2.08;;;28.40;61.40;;;;;;5059806;28;20591;-72
2021/07/05 09:41:55;;;;;;;2.20;2.10;;;28.20;59.00;;;;;;5065266;28;20815;-72
2021/07/05 09:44:23;;;;;;;4.63;2.45;;;27.90;59.50;;;;;;5074079;28;20647;-72
2021/07/05 09:46:56;;;;;;;1.98;1.92;;;27.90;60.00;;;;;;5063411;28;20244;-73
2021/07/05 09:49:33;;;;;;;2.10;2.00;;;27.90;59.60;;;;;;5056002;28;20189;-73
2021/07/05 09:52:26;;;;;;;2.33;2.33;;;27.90;60.30;;;;;;5061305;28;20703;-72
2021/07/05 09:55:05;;;;;;;2.47;2.47;;;28.00;60.50;;;;;;5065120;28;20584;-73
2021/07/05 09:58:06;;;;;;;3.28;2.10;;;28.10;60.70;;;;;;5069511;28;20209;-73
2021/07/05 10:00:38;;;;;;;2.50;2.40;;;28.10;60.10;;;;;;5016964;28;20282;-73
2021/07/05 10:03:06;;;;;;;2.50;2.40;;;28.10;61.00;;;;;;5018331;28;20192;-72
2021/07/05 10:05:44;;;;;;;2.50;2.50;;;28.20;61.10;;;;;;5028788;28;20443;-72
2021/07/05 10:08:12;;;;;;;2.65;2.47;;;28.50;61.30;;;;;;5034452;28;20210;-73
2021/07/05 10:10:42;;;;;;;2.67;2.58;;;28.80;60.80;;;;;;5039434;28;20197;-72
2021/07/05 10:13:16;;;;;;;3.25;3.03;;;29.10;60.10;;;;;;5038063;28;20223;-72
2021/07/05 10:15:42;;;;;;;2.60;2.50;;;29.40;60.10;;;;;;5038284;28;20211;-72
2021/07/05 10:18:08;;;;;;;3.05;2.85;;;29.70;59.50;;;;;;5040207;28;20290;-72
2021/07/05 10:20:37;;;;;;;3.40;3.10;;;30.10;59.30;;;;;;5038500;28;20262;-73
2021/07/05 10:23:11;;;;;;;3.53;2.88;;;30.50;58.70;;;;;;5042436;28;20262;-72
2021/07/05 10:25:40;;;;;;;2.72;2.63;;;30.80;57.60;;;;;;5031100;28;20187;-72
2021/07/05 10:28:07;;;;;;;2.72;2.65;;;31.00;57.00;;;;;;5040786;28;20437;-72
2021/07/05 10:30:34;;;;;;;3.38;2.72;;;31.00;57.10;;;;;;5039048;28;20203;-72
2021/07/05 10:33:00;;;;;;;3.03;2.83;;;31.30;57.10;;;;;;5039609;28;20247;-72
2021/07/05 10:35:41;;;;;;;3.40;3.10;;;31.60;56.20;;;;;;5031001;28;20478;-72
2021/07/05 10:38:07;;;;;;;3.42;2.78;;;31.80;55.40;;;;;;5080081;28;20256;-72
2021/07/05 10:40:41;;;;;;;4.70;2.95;;;31.80;56.20;;;;;;5080403;28;20219;-73
2021/07/05 10:43:11;;;;;;;2.72;2.42;;;32.00;56.10;;;;;;5065869;28;20186;-72
2021/07/05 10:45:54;;;;;;;3.03;2.95;;;32.30;55.90;;;;;;5082026;28;20186;-72
2021/07/05 10:48:34;;;;;;;2.53;2.47;;;32.80;55.40;;;;;;5082514;28;20399;-72
2021/07/05 10:51:02;;;;;;;3.42;3.22;;;33.40;54.50;;;;;;5068392;28;20616;-72
2021/07/05 10:53:46;;;;;;;3.05;3.00;;;33.90;53.90;;;;;;5066856;28;20261;-72
2021/07/05 10:56:31;;;;;;;2.80;2.70;;;34.40;53.50;;;;;;5068143;28;20738;-73
2021/07/05 10:59:15;;;;;;;2.80;2.70;;;35.10;52.20;;;;;;5068571;28;20210;-72
2021/07/05 11:01:45;;;;;;;3.15;2.95;;;35.80;52.00;;;;;;5061228;28;20206;-72
2021/07/05 11:04:19;;;;;;;2.58;2.47;;;36.30;51.20;;;;;;5069616;28;20656;-73
2021/07/05 11:06:49;;;;;;;2.95;2.85;;;36.80;50.00;;;;;;5068587;28;20278;-73
2021/07/05 11:09:24;;;;;;;2.60;2.60;;;37.10;49.70;;;;;;5081239;28;20186;-73
2021/07/05 11:11:57;;;;;;;2.83;2.63;;;37.30;51.00;;;;;;5069332;28;20210;-72
2021/07/05 11:14:28;;;;;;;2.72;2.53;;;37.30;49.60;;;;;;5051341;28;20206;-72
2021/07/05 11:17:09;;;;;;;2.80;2.80;;;36.90;50.70;;;;;;5069327;28;20186;-72
2021/07/05 11:19:40;;;;;;;2.58;2.53;;;36.30;51.00;;;;;;5063921;28;20179;-72
2021/07/05 11:22:09;;;;;;;2.20;2.20;;;35.70;51.40;;;;;;5084758;28;20183;-72
2021/07/05 11:24:42;;;;;;;2.53;2.38;;;35.80;51.70;;;;;;5069241;28;20186;-72
2021/07/05 11:27:49;;;;;;;2.20;2.10;;;36.30;50.90;;;;;;5069017;28;20174;-72
2021/07/05 11:30:24;;;;;;;2.63;2.47;;;37.10;49.60;;;;;;5023303;28;20193;-72
2021/07/05 11:33:14;;;;;;;2.78;2.67;;;37.80;48.80;;;;;;5019195;28;20222;-72
2021/07/05 11:35:47;;;;;;;2.40;2.40;;;38.60;48.90;;;;;;4931188;29;20199;-72
2021/07/05 11:38:23;;;;;;;2.88;2.63;;;39.10;47.40;;;;;;4932153;29;20232;-72
2021/07/05 11:40:50;;;;;;;3.00;2.50;;;38.90;47.60;;;;;;4934801;29;20198;-72
2021/07/05 11:43:37;;;;;;;2.25;2.25;;;39.00;48.80;;;;;;4930932;29;20360;-72
2021/07/05 11:46:02;;;;;;;2.50;2.30;;;39.20;48.50;;;;;;4928737;29;20246;-72
2021/07/05 11:48:40;;;;;;;2.13;2.13;;;38.90;48.10;;;;;;4929766;29;20211;-72
2021/07/05 11:51:20;;;;;;;2.67;2.58;;;38.30;47.50;;;;;;4930008;29;20229;-72
2021/07/05 11:54:00;;;;;;;1.95;1.95;;;37.70;48.20;;;;;;4928619;29;20209;-72
2021/07/05 11:56:27;;;;;;;5.25;2.30;;;37.10;48.60;;;;;;4927810;29;20586;-72
2021/07/05 11:58:52;;;;;;;2.08;2.08;;;36.80;51.00;;;;;;4928119;29;20622;-72
2021/07/05 12:01:19;;;;;;;4.20;2.30;;;36.70;50.80;;;;;;4923443;29;20217;-72
2021/07/05 12:03:55;;;;;;;2.20;1.92;;;36.80;50.40;;;;;;4947979;29;20313;-72
2021/07/05 12:06:23;;;;;;;2.47;2.38;;;36.90;50.30;;;;;;4967908;28;20244;-72
2021/07/05 12:08:57;;;;;;;6.50;2.42;;;36.60;50.40;;;;;;4979339;28;20710;-72
2021/07/05 12:11:44;;;;;;;3.17;2.58;;;36.30;50.90;;;;;;4974125;28;20185;-72
2021/07/05 12:14:26;;;;;;;2.47;2.30;;;35.90;50.00;;;;;;5065730;28;20279;-71
2021/07/05 12:16:59;;;;;;;2.28;2.17;;;35.70;50.50;;;;;;5065462;28;20277;-72
2021/07/05 12:19:27;;;;;;;2.53;2.50;;;35.40;51.80;;;;;;5060357;28;20178;-71
2021/07/05 12:22:01;;;;;;;2.08;2.08;;;35.40;51.50;;;;;;5066617;28;20277;-72
2021/07/05 12:24:52;;;;;;;2.90;2.35;;;35.30;51.30;;;;;;5073228;28;20670;-72
2021/07/05 12:27:22;;;;;;;2.97;2.53;;;35.30;52.20;;;;;;5061583;28;20275;-72
2021/07/05 12:29:58;;;;;;;2.30;2.28;;;35.20;52.40;;;;;;5066810;28;20221;-72
2021/07/05 12:32:28;;;;;;;2.15;2.15;;;35.00;52.30;;;;;;5066576;28;20219;-72
2021/07/05 12:35:11;;;;;;;3.05;2.00;;;35.20;51.20;;;;;;5064856;28;20647;-72
2021/07/05 12:37:44;;;;;;;2.67;2.38;;;35.80;50.30;;;;;;5066722;28;20181;-72
2021/07/05 12:40:18;;;;;;;2.47;2.40;;;36.50;49.60;;;;;;5066322;28;20265;-71
2021/07/05 12:42:54;;;;;;;1.73;1.73;;;37.10;49.90;;;;;;5066349;28;20197;-72
2021/07/05 12:45:19;;;;;;;2.55;2.38;;;37.90;48.30;;;;;;5066249;28;20248;-72
2021/07/05 12:47:47;;;;;;;2.13;2.13;;;38.60;47.00;;;;;;5066406;28;20195;-72
2021/07/05 12:50:22;;;;;;;3.20;2.25;;;39.10;46.80;;;;;;5071288;28;20189;-72
2021/07/05 12:53:01;;;;;;;2.50;2.40;;;39.50;47.10;;;;;;5076573;28;20210;-72
2021/07/05 12:55:35;;;;;;;4.03;2.15;;;39.30;44.70;;;;;;5069278;28;20190;-72